sensor_id;sensor_type;location;lat;lon;timestamp;pressure;altitude;pressure_sealevel;temperature;humidity
70921;BME280;58572;48.110;19.838;2023-04-07T00:01:21;97318.91;;;3.28;62.40
70921;BME280;58572;48.110;19.838;2023-04-07T00:03:48;97398.09;;;3.91;62.11
70921;BME280;58572;48.110;19.838;2023-04-07T00:06:15;97404.75;;;4.10;61.84
70921;BME280;58572;48.110;19.838;2023-04-07T00:08:42;97402.81;;;4.05;62.18
70921;BME280;58572;48.110;19.838;2023-04-07T00:11:10;97405.53;;;3.83;62.80
70921;BME280;58572;48.110;19.838;2023-04-07T00:13:38;97400.75;;;3.64;62.82
70921;BME280;58572;48.110;19.838;2023-04-07T00:16:06;97403.03;;;3.99;62.70
70921;BME280;58572;48.110;19.838;2023-04-07T00:18:33;97401.56;;;4.13;61.16
70921;BME280;58572;48.110;19.838;2023-04-07T00:21:00;97406.34;;;3.84;62.74
70921;BME280;58572;48.110;19.838;2023-04-07T00:23:27;97404.94;;;4.03;61.76
70921;BME280;58572;48.110;19.838;2023-04-07T00:25:54;97400.88;;;4.01;61.81
70921;BME280;58572;48.110;19.838;2023-04-07T00:28:21;97348.00;;;3.58;65.84
70921;BME280;58572;48.110;19.838;2023-04-07T00:30:49;97373.28;;;3.83;62.04
70921;BME280;58572;48.110;19.838;2023-04-07T00:33:16;97390.41;;;4.26;61.18
70921;BME280;58572;48.110;19.838;2023-04-07T00:35:43;97383.03;;;3.90;62.10
70921;BME280;58572;48.110;19.838;2023-04-07T00:38:10;97385.16;;;3.88;62.90
70921;BME280;58572;48.110;19.838;2023-04-07T00:40:37;97379.28;;;3.91;62.42
70921;BME280;58572;48.110;19.838;2023-04-07T00:43:04;97373.78;;;4.07;62.10
70921;BME280;58572;48.110;19.838;2023-04-07T00:45:31;97380.19;;;4.01;62.71
70921;BME280;58572;48.110;19.838;2023-04-07T00:48:00;97376.34;;;3.92;62.39
70921;BME280;58572;48.110;19.838;2023-04-07T00:50:27;97382.91;;;3.79;65.77
70921;BME280;58572;48.110;19.838;2023-04-07T00:52:54;97370.78;;;3.77;62.56
70921;BME280;58572;48.110;19.838;2023-04-07T00:55:21;97375.44;;;3.38;65.09
70921;BME280;58572;48.110;19.838;2023-04-07T00:57:48;97372.50;;;3.61;64.17
70921;BME280;58572;48.110;19.838;2023-04-07T01:00:16;97381.34;;;3.83;62.84
70921;BME280;58572;48.110;19.838;2023-04-07T01:02:50;97371.59;;;3.77;63.32
70921;BME280;58572;48.110;19.838;2023-04-07T01:05:22;97385.88;;;3.56;63.92
70921;BME280;58572;48.110;19.838;2023-04-07T01:07:57;97382.63;;;4.03;62.12
70921;BME280;58572;48.110;19.838;2023-04-07T01:10:32;97374.78;;;3.74;62.53
70921;BME280;58572;48.110;19.838;2023-04-07T01:13:05;97372.97;;;3.80;63.08
70921;BME280;58572;48.110;19.838;2023-04-07T01:15:33;97283.47;;;3.31;61.94
70921;BME280;58572;48.110;19.838;2023-04-07T01:18:09;97383.88;;;3.68;62.75
70921;BME280;58572;48.110;19.838;2023-04-07T01:20:42;97377.91;;;3.88;62.99
70921;BME280;58572;48.110;19.838;2023-04-07T01:23:17;97372.88;;;3.97;62.10
70921;BME280;58572;48.110;19.838;2023-04-07T01:26:05;97371.97;;;3.86;62.44
70921;BME280;58572;48.110;19.838;2023-04-07T01:28:43;97257.38;;;3.04;62.73
70921;BME280;58572;48.110;19.838;2023-04-07T01:31:14;97369.38;;;3.96;61.70
70921;BME280;58572;48.110;19.838;2023-04-07T01:33:44;97374.66;;;3.86;63.00
70921;BME280;58572;48.110;19.838;2023-04-07T01:36:12;97368.09;;;4.04;61.39
70921;BME280;58572;48.110;19.838;2023-04-07T01:38:42;97376.94;;;3.99;61.33
70921;BME280;58572;48.110;19.838;2023-04-07T01:41:10;97358.94;;;4.00;61.42
70921;BME280;58572;48.110;19.838;2023-04-07T01:43:40;97362.03;;;3.87;61.68
70921;BME280;58572;48.110;19.838;2023-04-07T01:46:08;97372.88;;;3.97;61.51
70921;BME280;58572;48.110;19.838;2023-04-07T01:48:38;97370.84;;;4.09;61.01
70921;BME280;58572;48.110;19.838;2023-04-07T01:51:06;97366.06;;;4.16;60.76
70921;BME280;58572;48.110;19.838;2023-04-07T01:53:36;97362.81;;;4.14;60.93
70921;BME280;58572;48.110;19.838;2023-04-07T01:56:04;97368.72;;;4.11;61.03
70921;BME280;58572;48.110;19.838;2023-04-07T01:58:31;97356.28;;;4.05;60.87
70921;BME280;58572;48.110;19.838;2023-04-07T02:00:58;97363.34;;;4.11;60.86
70921;BME280;58572;48.110;19.838;2023-04-07T02:03:28;97368.09;;;4.04;61.00
70921;BME280;58572;48.110;19.838;2023-04-07T02:06:03;97336.03;;;3.97;60.80
70921;BME280;58572;48.110;19.838;2023-04-07T02:08:32;97361.75;;;4.15;60.35
70921;BME280;58572;48.110;19.838;2023-04-07T02:11:02;97359.03;;;4.10;61.01
70921;BME280;58572;48.110;19.838;2023-04-07T02:13:33;97363.63;;;4.14;60.79
70921;BME280;58572;48.110;19.838;2023-04-07T02:16:00;97364.34;;;4.05;61.56
70921;BME280;58572;48.110;19.838;2023-04-07T02:18:29;97352.94;;;3.93;61.37
70921;BME280;58572;48.110;19.838;2023-04-07T02:20:59;97361.06;;;3.98;61.78
70921;BME280;58572;48.110;19.838;2023-04-07T02:23:27;97367.84;;;3.78;63.12
70921;BME280;58572;48.110;19.838;2023-04-07T02:25:55;97366.19;;;3.72;64.07
70921;BME280;58572;48.110;19.838;2023-04-07T02:28:23;97369.22;;;4.08;61.37
70921;BME280;58572;48.110;19.838;2023-04-07T02:30:50;97359.88;;;4.15;60.51
70921;BME280;58572;48.110;19.838;2023-04-07T02:33:17;97358.16;;;3.77;61.74
70921;BME280;58572;48.110;19.838;2023-04-07T02:35:44;97364.16;;;4.11;60.65
70921;BME280;58572;48.110;19.838;2023-04-07T02:38:12;97346.00;;;3.97;61.42
70921;BME280;58572;48.110;19.838;2023-04-07T02:40:39;97356.88;;;4.12;60.71
70921;BME280;58572;48.110;19.838;2023-04-07T02:43:06;97367.34;;;4.08;61.36
70921;BME280;58572;48.110;19.838;2023-04-07T02:45:33;97326.00;;;3.88;61.10
70921;BME280;58572;48.110;19.838;2023-04-07T02:48:00;97372.47;;;4.10;60.68
70921;BME280;58572;48.110;19.838;2023-04-07T02:50:28;97370.34;;;4.12;60.90
70921;BME280;58572;48.110;19.838;2023-04-07T02:52:55;97264.22;;;3.39;60.97
70921;BME280;58572;48.110;19.838;2023-04-07T02:55:23;97304.84;;;3.69;60.60
70921;BME280;58572;48.110;19.838;2023-04-07T02:57:50;97341.94;;;4.21;59.96
70921;BME280;58572;48.110;19.838;2023-04-07T03:00:17;97375.72;;;4.12;60.39
70921;BME280;58572;48.110;19.838;2023-04-07T03:02:44;97375.53;;;3.92;61.17
70921;BME280;58572;48.110;19.838;2023-04-07T03:05:11;97362.72;;;3.77;62.50
70921;BME280;58572;48.110;19.838;2023-04-07T03:07:39;97372.88;;;3.97;61.98
70921;BME280;58572;48.110;19.838;2023-04-07T03:10:06;97371.88;;;4.03;61.11
70921;BME280;58572;48.110;19.838;2023-04-07T03:12:35;97370.59;;;4.10;61.35
70921;BME280;58572;48.110;19.838;2023-04-07T03:15:02;97370.91;;;4.14;60.67
70921;BME280;58572;48.110;19.838;2023-04-07T03:17:30;97378.28;;;3.09;71.42
70921;BME280;58572;48.110;19.838;2023-04-07T03:19:57;97342.19;;;3.44;62.91
70921;BME280;58572;48.110;19.838;2023-04-07T03:22:24;97383.44;;;4.03;61.85
70921;BME280;58572;48.110;19.838;2023-04-07T03:24:51;97397.44;;;4.05;61.73
70921;BME280;58572;48.110;19.838;2023-04-07T03:27:18;97385.28;;;3.76;65.95
70921;BME280;58572;48.110;19.838;2023-04-07T03:29:46;97387.78;;;2.45;75.27
70921;BME280;58572;48.110;19.838;2023-04-07T03:32:15;97383.56;;;3.43;65.46
70921;BME280;58572;48.110;19.838;2023-04-07T03:34:42;97382.66;;;3.81;63.19
70921;BME280;58572;48.110;19.838;2023-04-07T03:37:09;97391.13;;;3.07;67.83
70921;BME280;58572;48.110;19.838;2023-04-07T03:39:36;97393.75;;;3.63;64.69
70921;BME280;58572;48.110;19.838;2023-04-07T03:42:05;97390.53;;;3.88;63.12
70921;BME280;58572;48.110;19.838;2023-04-07T03:44:32;97314.22;;;3.40;62.06
70921;BME280;58572;48.110;19.838;2023-04-07T03:47:01;97390.53;;;3.88;62.33
70921;BME280;58572;48.110;19.838;2023-04-07T03:49:28;97387.78;;;3.82;62.42
70921;BME280;58572;48.110;19.838;2023-04-07T03:51:55;97395.19;;;3.70;66.64
70921;BME280;58572;48.110;19.838;2023-04-07T03:54:23;97406.81;;;3.32;64.75
70921;BME280;58572;48.110;19.838;2023-04-07T03:56:50;97403.13;;;3.60;64.70
70921;BME280;58572;48.110;19.838;2023-04-07T03:59:17;97403.53;;;3.96;62.29
70921;BME280;58572;48.110;19.838;2023-04-07T04:01:45;97415.19;;;3.79;66.84
70921;BME280;58572;48.110;19.838;2023-04-07T04:04:13;97411.22;;;3.87;62.55
70921;BME280;58572;48.110;19.838;2023-04-07T04:06:41;97407.28;;;3.95;61.67
70921;BME280;58572;48.110;19.838;2023-04-07T04:09:08;97419.16;;;3.99;61.38
70921;BME280;58572;48.110;19.838;2023-04-07T04:11:35;97411.53;;;3.91;61.50
70921;BME280;58572;48.110;19.838;2023-04-07T04:14:02;97410.19;;;3.66;62.59
70921;BME280;58572;48.110;19.838;2023-04-07T04:16:29;97416.69;;;3.70;62.27
70921;BME280;58572;48.110;19.838;2023-04-07T04:18:57;97417.31;;;3.77;62.34
70921;BME280;58572;48.110;19.838;2023-04-07T04:21:26;97397.69;;;3.55;62.85
70921;BME280;58572;48.110;19.838;2023-04-07T04:23:53;97420.66;;;3.90;62.06
70921;BME280;58572;48.110;19.838;2023-04-07T04:26:20;97424.13;;;3.85;62.31
70921;BME280;58572;48.110;19.838;2023-04-07T04:28:50;97427.88;;;3.84;61.57
70921;BME280;58572;48.110;19.838;2023-04-07T04:31:17;97425.31;;;3.72;62.28
70921;BME280;58572;48.110;19.838;2023-04-07T04:33:45;97426.50;;;3.81;61.58
70921;BME280;58572;48.110;19.838;2023-04-07T04:36:12;97427.66;;;3.91;61.45
70921;BME280;58572;48.110;19.838;2023-04-07T04:38:40;97433.06;;;3.91;61.85
70921;BME280;58572;48.110;19.838;2023-04-07T04:41:07;97298.72;;;3.03;61.50
70921;BME280;58572;48.110;19.838;2023-04-07T04:43:35;97437.41;;;3.97;61.74
70921;BME280;58572;48.110;19.838;2023-04-07T04:46:02;97434.28;;;4.05;60.74
70921;BME280;58572;48.110;19.838;2023-04-07T04:48:29;97441.19;;;3.96;61.69
70921;BME280;58572;48.110;19.838;2023-04-07T04:50:56;97437.06;;;3.88;62.01
70921;BME280;58572;48.110;19.838;2023-04-07T04:53:24;97434.13;;;3.90;61.72
70921;BME280;58572;48.110;19.838;2023-04-07T04:55:52;97432.75;;;3.87;61.44
70921;BME280;58572;48.110;19.838;2023-04-07T04:58:20;97444.75;;;3.79;61.54
70921;BME280;58572;48.110;19.838;2023-04-07T05:00:47;97442.88;;;3.80;61.61
70921;BME280;58572;48.110;19.838;2023-04-07T05:03:14;97436.50;;;3.86;61.44
70921;BME280;58572;48.110;19.838;2023-04-07T05:05:42;97443.19;;;3.83;61.95
70921;BME280;58572;48.110;19.838;2023-04-07T05:08:13;97443.13;;;3.78;62.42
70921;BME280;58572;48.110;19.838;2023-04-07T05:10:40;97434.25;;;3.78;62.49
70921;BME280;58572;48.110;19.838;2023-04-07T05:13:08;97444.81;;;3.84;62.40
70921;BME280;58572;48.110;19.838;2023-04-07T05:15:36;97447.81;;;3.88;61.46
70921;BME280;58572;48.110;19.838;2023-04-07T05:18:03;97453.06;;;4.00;61.33
70921;BME280;58572;48.110;19.838;2023-04-07T05:20:30;97452.88;;;3.84;61.79
70921;BME280;58572;48.110;19.838;2023-04-07T05:22:57;97459.31;;;3.83;61.83
70921;BME280;58572;48.110;19.838;2023-04-07T05:25:25;97458.31;;;3.90;62.19
70921;BME280;58572;48.110;19.838;2023-04-07T05:27:52;97460.75;;;3.91;62.10
70921;BME280;58572;48.110;19.838;2023-04-07T05:30:20;97458.94;;;3.97;61.53
70921;BME280;58572;48.110;19.838;2023-04-07T05:32:47;97460.75;;;3.91;62.00
70921;BME280;58572;48.110;19.838;2023-04-07T05:35:15;97464.69;;;3.83;62.08
70921;BME280;58572;48.110;19.838;2023-04-07T05:37:42;97466.31;;;3.84;61.78
70921;BME280;58572;48.110;19.838;2023-04-07T05:40:10;97432.38;;;3.57;62.36
70921;BME280;58572;48.110;19.838;2023-04-07T05:42:38;97468.94;;;3.79;62.13
70921;BME280;58572;48.110;19.838;2023-04-07T05:45:06;97473.00;;;3.82;61.85
70921;BME280;58572;48.110;19.838;2023-04-07T05:47:35;97471.25;;;3.71;62.39
70921;BME280;58572;48.110;19.838;2023-04-07T05:50:02;97470.50;;;3.75;62.33
70921;BME280;58572;48.110;19.838;2023-04-07T05:52:29;97473.31;;;3.85;62.02
70921;BME280;58572;48.110;19.838;2023-04-07T05:54:57;97486.13;;;3.78;61.85
70921;BME280;58572;48.110;19.838;2023-04-07T05:57:25;97483.00;;;3.87;61.71
70921;BME280;58572;48.110;19.838;2023-04-07T05:59:53;97479.81;;;3.90;61.49
70921;BME280;58572;48.110;19.838;2023-04-07T06:02:20;97482.00;;;3.93;61.28
70921;BME280;58572;48.110;19.838;2023-04-07T06:04:49;97487.31;;;3.88;62.11
70921;BME280;58572;48.110;19.838;2023-04-07T06:07:16;97428.94;;;3.61;61.94
70921;BME280;58572;48.110;19.838;2023-04-07T06:09:43;97493.53;;;3.88;61.99
70921;BME280;58572;48.110;19.838;2023-04-07T06:12:10;97487.56;;;3.86;62.00
70921;BME280;58572;48.110;19.838;2023-04-07T06:14:38;97438.69;;;3.67;61.68
70921;BME280;58572;48.110;19.838;2023-04-07T06:17:05;97484.19;;;3.96;62.12
70921;BME280;58572;48.110;19.838;2023-04-07T06:19:32;97484.19;;;3.96;61.60
70921;BME280;58572;48.110;19.838;2023-04-07T06:22:01;97479.94;;;4.00;61.21
70921;BME280;58572;48.110;19.838;2023-04-07T06:24:28;97270.09;;;2.70;61.52
70921;BME280;58572;48.110;19.838;2023-04-07T06:26:55;97484.00;;;4.02;61.78
70921;BME280;58572;48.110;19.838;2023-04-07T06:29:22;97480.56;;;4.07;61.39
70921;BME280;58572;48.110;19.838;2023-04-07T06:31:50;97483.31;;;4.12;61.49
70921;BME280;58572;48.110;19.838;2023-04-07T06:34:18;97466.50;;;4.00;61.21
70921;BME280;58572;48.110;19.838;2023-04-07T06:36:45;97485.84;;;4.19;61.07
70921;BME280;58572;48.110;19.838;2023-04-07T06:39:14;97490.00;;;4.31;61.14
70921;BME280;58572;48.110;19.838;2023-04-07T06:41:41;97489.44;;;4.29;60.66
70921;BME280;58572;48.110;19.838;2023-04-07T06:44:08;97491.47;;;4.17;61.42
70921;BME280;58572;48.110;19.838;2023-04-07T06:46:38;97492.66;;;4.26;61.07
70921;BME280;58572;48.110;19.838;2023-04-07T06:49:06;97454.56;;;3.91;61.39
70921;BME280;58572;48.110;19.838;2023-04-07T06:51:33;97502.09;;;4.07;61.42
70921;BME280;58572;48.110;19.838;2023-04-07T06:54:00;97489.91;;;4.21;61.91
70921;BME280;58572;48.110;19.838;2023-04-07T06:56:30;97500.84;;;4.36;60.89
70921;BME280;58572;48.110;19.838;2023-04-07T06:58:57;97501.94;;;4.40;60.43
70921;BME280;58572;48.110;19.838;2023-04-07T07:01:25;97506.16;;;4.31;61.08
70921;BME280;58572;48.110;19.838;2023-04-07T07:03:52;97509.03;;;4.25;62.02
70921;BME280;58572;48.110;19.838;2023-04-07T07:06:19;97505.59;;;4.29;61.67
70921;BME280;58572;48.110;19.838;2023-04-07T07:08:47;97505.41;;;4.36;61.44
70921;BME280;58572;48.110;19.838;2023-04-07T07:11:14;97516.88;;;4.26;61.96
70921;BME280;58572;48.110;19.838;2023-04-07T07:13:43;97516.78;;;4.43;61.20
70921;BME280;58572;48.110;19.838;2023-04-07T07:16:11;97515.91;;;4.37;61.67
70921;BME280;58572;48.110;19.838;2023-04-07T07:18:38;97519.59;;;4.31;62.07
70921;BME280;58572;48.110;19.838;2023-04-07T07:21:05;97517.09;;;4.46;61.22
70921;BME280;58572;48.110;19.838;2023-04-07T07:23:32;97519.09;;;4.34;61.84
70921;BME280;58572;48.110;19.838;2023-04-07T07:26:00;97521.44;;;4.53;61.21
70921;BME280;58572;48.110;19.838;2023-04-07T07:28:27;97517.53;;;4.65;60.83
70921;BME280;58572;48.110;19.838;2023-04-07T07:30:56;97521.69;;;4.78;60.63
70921;BME280;58572;48.110;19.838;2023-04-07T07:33:23;97526.03;;;4.79;60.96
70921;BME280;58572;48.110;19.838;2023-04-07T07:35:50;97528.25;;;4.87;60.72
70921;BME280;58572;48.110;19.838;2023-04-07T07:38:17;97490.53;;;4.55;60.10
70921;BME280;58572;48.110;19.838;2023-04-07T07:40:44;97524.25;;;5.22;59.51
70921;BME280;58572;48.110;19.838;2023-04-07T07:43:11;97525.03;;;4.90;60.49
70921;BME280;58572;48.110;19.838;2023-04-07T07:45:38;97493.00;;;4.35;61.90
70921;BME280;58572;48.110;19.838;2023-04-07T07:48:07;97536.47;;;5.02;60.44
70921;BME280;58572;48.110;19.838;2023-04-07T07:50:34;97415.47;;;4.59;59.79
70921;BME280;58572;48.110;19.838;2023-04-07T07:53:01;97535.13;;;5.32;61.10
70921;BME280;58572;48.110;19.838;2023-04-07T07:55:28;97543.91;;;5.54;59.46
70921;BME280;58572;48.110;19.838;2023-04-07T07:57:55;97542.53;;;5.20;59.97
70921;BME280;58572;48.110;19.838;2023-04-07T08:00:22;97547.53;;;5.33;60.17
70921;BME280;58572;48.110;19.838;2023-04-07T08:02:49;97552.22;;;5.16;61.14
70921;BME280;58572;48.110;19.838;2023-04-07T08:05:18;97552.03;;;5.22;60.75
70921;BME280;58572;48.110;19.838;2023-04-07T08:07:45;97554.28;;;4.76;63.14
70921;BME280;58572;48.110;19.838;2023-04-07T08:10:13;97556.78;;;5.15;61.48
70921;BME280;58572;48.110;19.838;2023-04-07T08:12:40;97516.97;;;4.36;67.95
70921;BME280;58572;48.110;19.838;2023-04-07T08:15:08;97560.53;;;4.33;68.38
70921;BME280;58572;48.110;19.838;2023-04-07T08:17:35;97498.38;;;2.97;71.58
70921;BME280;58572;48.110;19.838;2023-04-07T08:20:02;97554.84;;;4.30;68.70
70921;BME280;58572;48.110;19.838;2023-04-07T08:22:31;97561.78;;;4.47;65.81
70921;BME280;58572;48.110;19.838;2023-04-07T08:24:58;97565.41;;;4.36;65.45
70921;BME280;58572;48.110;19.838;2023-04-07T08:27:25;97567.28;;;4.58;63.90
70921;BME280;58572;48.110;19.838;2023-04-07T08:29:58;97559.66;;;5.03;66.73
70921;BME280;58572;48.110;19.838;2023-04-07T08:32:33;97561.38;;;4.61;68.32
70921;BME280;58572;48.110;19.838;2023-04-07T08:35:00;97551.47;;;5.20;63.81
70921;BME280;58572;48.110;19.838;2023-04-07T08:37:27;97555.22;;;5.51;62.24
70921;BME280;58572;48.110;19.838;2023-04-07T08:39:56;97552.47;;;5.46;62.26
70921;BME280;58572;48.110;19.838;2023-04-07T08:42:26;97553.06;;;5.53;61.46
70921;BME280;58572;48.110;19.838;2023-04-07T08:44:55;97557.03;;;5.83;61.24
70921;BME280;58572;48.110;19.838;2023-04-07T08:47:24;97558.75;;;5.94;62.35
70921;BME280;58572;48.110;19.838;2023-04-07T08:49:53;97509.78;;;5.33;61.80
70921;BME280;58572;48.110;19.838;2023-04-07T08:52:26;97560.00;;;5.44;62.19
70921;BME280;58572;48.110;19.838;2023-04-07T08:54:58;97568.38;;;5.85;61.27
70921;BME280;58572;48.110;19.838;2023-04-07T08:57:28;97564.91;;;5.52;62.17
70921;BME280;58572;48.110;19.838;2023-04-07T08:59:56;97574.38;;;5.55;62.58
70921;BME280;58572;48.110;19.838;2023-04-07T09:02:26;97568.56;;;5.73;62.17
70921;BME280;58572;48.110;19.838;2023-04-07T09:04:54;97570.28;;;5.47;63.00
70921;BME280;58572;48.110;19.838;2023-04-07T09:07:21;97538.50;;;4.90;66.20
70921;BME280;58572;48.110;19.838;2023-04-07T09:09:48;97578.38;;;5.47;63.84
70921;BME280;58572;48.110;19.838;2023-04-07T09:12:17;97564.78;;;5.05;66.51
70921;BME280;58572;48.110;19.838;2023-04-07T09:14:44;97574.56;;;4.35;71.34
70921;BME280;58572;48.110;19.838;2023-04-07T09:17:11;97561.19;;;4.94;67.95
70921;BME280;58572;48.110;19.838;2023-04-07T09:19:38;97568.69;;;5.51;64.80
70921;BME280;58572;48.110;19.838;2023-04-07T09:22:05;97568.91;;;4.86;69.44
70921;BME280;58572;48.110;19.838;2023-04-07T09:24:33;97568.78;;;4.48;68.15
70921;BME280;58572;48.110;19.838;2023-04-07T09:27:10;97571.59;;;4.15;74.27
70921;BME280;58572;48.110;19.838;2023-04-07T09:29:40;97567.44;;;4.07;72.44
70921;BME280;58572;48.110;19.838;2023-04-07T09:32:07;97570.19;;;4.12;74.72
70921;BME280;58572;48.110;19.838;2023-04-07T09:34:36;97574.78;;;4.56;72.25
70921;BME280;58572;48.110;19.838;2023-04-07T09:37:04;97574.06;;;4.00;75.22
70921;BME280;58572;48.110;19.838;2023-04-07T09:39:31;97581.38;;;3.82;76.78
70921;BME280;58572;48.110;19.838;2023-04-07T09:42:05;97576.91;;;5.07;69.47
70921;BME280;58572;48.110;19.838;2023-04-07T09:44:39;97572.75;;;5.54;66.28
70921;BME280;58572;48.110;19.838;2023-04-07T09:47:07;97579.66;;;5.39;66.00
70921;BME280;58572;48.110;19.838;2023-04-07T09:49:47;97588.47;;;5.67;65.38
70921;BME280;58572;48.110;19.838;2023-04-07T09:52:15;97342.03;;;3.77;65.58
70921;BME280;58572;48.110;19.838;2023-04-07T09:54:45;97588.66;;;5.55;64.99
70921;BME280;58572;48.110;19.838;2023-04-07T09:57:12;97586.53;;;5.57;64.40
70921;BME280;58572;48.110;19.838;2023-04-07T09:59:43;97588.50;;;5.35;65.30
70921;BME280;58572;48.110;19.838;2023-04-07T10:02:11;97576.38;;;5.69;63.91
70921;BME280;58572;48.110;19.838;2023-04-07T10:04:38;97531.50;;;5.53;63.26
70921;BME280;58572;48.110;19.838;2023-04-07T10:07:06;97583.13;;;5.72;68.44
70921;BME280;58572;48.110;19.838;2023-04-07T10:09:33;97583.06;;;5.99;64.12
70921;BME280;58572;48.110;19.838;2023-04-07T10:12:01;97588.81;;;5.75;66.51
70921;BME280;58572;48.110;19.838;2023-04-07T10:14:30;97587.19;;;5.74;65.25
70921;BME280;58572;48.110;19.838;2023-04-07T10:16:59;97581.66;;;5.91;64.17
70921;BME280;58572;48.110;19.838;2023-04-07T10:19:30;97592.63;;;6.22;63.34
70921;BME280;58572;48.110;19.838;2023-04-07T10:21:59;97589.25;;;6.52;61.55
70921;BME280;58572;48.110;19.838;2023-04-07T10:24:43;97581.72;;;6.01;63.71
70921;BME280;58572;48.110;19.838;2023-04-07T10:27:16;97540.78;;;5.72;64.55
70921;BME280;58572;48.110;19.838;2023-04-07T10:29:48;97603.78;;;4.27;76.17
70921;BME280;58572;48.110;19.838;2023-04-07T10:32:17;97611.78;;;5.46;68.20
70921;BME280;58572;48.110;19.838;2023-04-07T10:34:57;97602.47;;;4.29;74.68
70921;BME280;58572;48.110;19.838;2023-04-07T10:37:26;97591.75;;;5.10;70.54
70921;BME280;58572;48.110;19.838;2023-04-07T10:42:57;97581.91;;;5.90;65.62
70921;BME280;58572;48.110;19.838;2023-04-07T10:45:53;97593.56;;;5.95;65.52
70921;BME280;58572;48.110;19.838;2023-04-07T10:48:24;97599.06;;;5.78;67.51
70921;BME280;58572;48.110;19.838;2023-04-07T10:51:17;97602.19;;;6.45;63.38
70921;BME280;58572;48.110;19.838;2023-04-07T10:54:17;97593.31;;;6.49;62.99
70921;BME280;58572;48.110;19.838;2023-04-07T10:57:07;97590.41;;;6.71;62.49
70921;BME280;58572;48.110;19.838;2023-04-07T10:59:37;97598.03;;;6.99;61.06
70921;BME280;58572;48.110;19.838;2023-04-07T11:02:29;97608.69;;;6.01;67.79
70921;BME280;58572;48.110;19.838;2023-04-07T11:04:58;97533.97;;;6.02;65.03
70921;BME280;58572;48.110;19.838;2023-04-07T11:07:48;97602.53;;;6.58;63.75
70921;BME280;58572;48.110;19.838;2023-04-07T11:10:15;97603.06;;;6.60;63.50
70921;BME280;58572;48.110;19.838;2023-04-07T11:12:44;97567.66;;;6.47;62.77
70921;BME280;58572;48.110;19.838;2023-04-07T11:15:23;97602.19;;;6.39;63.98
70921;BME280;58572;48.110;19.838;2023-04-07T11:18:13;97601.75;;;6.68;63.03
70921;BME280;58572;48.110;19.838;2023-04-07T11:20:45;97606.66;;;6.81;62.90
70921;BME280;58572;48.110;19.838;2023-04-07T11:23:13;97614.53;;;6.25;67.40
70921;BME280;58572;48.110;19.838;2023-04-07T11:25:41;97617.50;;;6.29;68.78
70921;BME280;58572;48.110;19.838;2023-04-07T11:28:11;97619.13;;;6.30;64.50
70921;BME280;58572;48.110;19.838;2023-04-07T11:30:44;97613.41;;;6.21;65.89
70921;BME280;58572;48.110;19.838;2023-04-07T11:33:15;97625.00;;;5.85;69.32
70921;BME280;58572;48.110;19.838;2023-04-07T11:35:52;97619.69;;;5.58;72.37
70921;BME280;58572;48.110;19.838;2023-04-07T11:38:20;97616.19;;;6.31;66.86
70921;BME280;58572;48.110;19.838;2023-04-07T11:40:47;97611.34;;;6.38;65.66
70921;BME280;58572;48.110;19.838;2023-04-07T11:43:15;97515.13;;;6.17;63.37
70921;BME280;58572;48.110;19.838;2023-04-07T11:45:43;97618.00;;;5.47;68.62
70921;BME280;58572;48.110;19.838;2023-04-07T11:48:29;97628.13;;;4.59;73.73
70921;BME280;58572;48.110;19.838;2023-04-07T11:50:58;97615.94;;;5.96;67.34
70921;BME280;58572;48.110;19.838;2023-04-07T11:53:27;97525.88;;;5.60;66.20
70921;BME280;58572;48.110;19.838;2023-04-07T11:56:01;97622.72;;;5.98;69.71
70921;BME280;58572;48.110;19.838;2023-04-07T11:58:29;97616.69;;;7.01;64.06
70921;BME280;58572;48.110;19.838;2023-04-07T12:00:56;97628.22;;;5.44;70.22
70921;BME280;58572;48.110;19.838;2023-04-07T12:03:23;97500.63;;;4.43;72.51
70921;BME280;58572;48.110;19.838;2023-04-07T12:05:51;97617.38;;;6.08;68.08
70921;BME280;58572;48.110;19.838;2023-04-07T12:08:20;97628.91;;;4.81;71.26
70921;BME280;58572;48.110;19.838;2023-04-07T12:10:47;97626.59;;;5.17;70.92
70921;BME280;58572;48.110;19.838;2023-04-07T12:13:14;97615.16;;;6.43;65.85
70921;BME280;58572;48.110;19.838;2023-04-07T12:15:42;97619.28;;;6.13;68.62
70921;BME280;58572;48.110;19.838;2023-04-07T12:18:14;97621.84;;;5.02;72.29
70921;BME280;58572;48.110;19.838;2023-04-07T12:20:42;97626.94;;;5.52;70.41
70921;BME280;58572;48.110;19.838;2023-04-07T12:23:09;97529.44;;;5.70;66.58
70921;BME280;58572;48.110;19.838;2023-04-07T12:25:38;97629.13;;;4.53;73.95
70921;BME280;58572;48.110;19.838;2023-04-07T12:28:05;97620.00;;;5.98;67.97
70921;BME280;58572;48.110;19.838;2023-04-07T12:30:32;97622.69;;;6.40;65.89
70921;BME280;58572;48.110;19.838;2023-04-07T12:32:59;97625.19;;;6.52;64.89
70921;BME280;58572;48.110;19.838;2023-04-07T12:35:28;97622.50;;;6.57;67.47
70921;BME280;58572;48.110;19.838;2023-04-07T12:37:55;97620.72;;;6.88;63.19
70921;BME280;58572;48.110;19.838;2023-04-07T12:40:22;97624.81;;;6.33;69.54
70921;BME280;58572;48.110;19.838;2023-04-07T12:42:51;97633.44;;;5.02;71.93
70921;BME280;58572;48.110;19.838;2023-04-07T12:45:18;97639.91;;;6.24;67.17
70921;BME280;58572;48.110;19.838;2023-04-07T12:47:45;97632.19;;;6.06;67.01
70921;BME280;58572;48.110;19.838;2023-04-07T12:50:13;97632.81;;;6.70;64.61
70921;BME280;58572;48.110;19.838;2023-04-07T12:52:40;97636.03;;;6.62;63.72
70921;BME280;58572;48.110;19.838;2023-04-07T12:55:08;97535.13;;;5.74;64.61
70921;BME280;58572;48.110;19.838;2023-04-07T12:57:35;97645.84;;;5.57;70.74
70921;BME280;58572;48.110;19.838;2023-04-07T13:00:04;97633.63;;;5.82;70.65
70921;BME280;58572;48.110;19.838;2023-04-07T13:02:33;97632.78;;;6.13;67.84
70921;BME280;58572;48.110;19.838;2023-04-07T13:05:01;97633.91;;;5.85;67.93
70921;BME280;58572;48.110;19.838;2023-04-07T13:07:28;97635.28;;;5.88;69.36
70921;BME280;58572;48.110;19.838;2023-04-07T13:09:55;97633.81;;;6.49;65.56
70921;BME280;58572;48.110;19.838;2023-04-07T13:12:22;97539.66;;;5.63;66.71